Time;durP1;ratioP1;P1;durP2;ratioP2;P2;SDS_P1;SDS_P2;PMS_P1;PMS_P2;Temp;Humidity;BMP_temperature;BMP_pressure;BME280_temperature;BME280_humidity;BME280_pressure;Samples;Min_cycle;Max_cycle;Signal;HPM_P1;HPM_P2
2022/10/15 00:01:27;;;;;;;31.92;19.50;;;;;;;10.41;100.00;100621.31;5050084;28;20433;-50
2022/10/15 00:03:57;;;;;;;28.88;17.92;;;;;;;10.42;100.00;100618.59;5048330;28;20139;-52
2022/10/15 00:06:26;;;;;;;35.28;19.20;;;;;;;10.40;100.00;100624.88;5050580;28;20147;-49
2022/10/15 00:08:54;;;;;;;39.65;19.58;;;;;;;10.40;100.00;100624.88;5050566;28;20454;-51
2022/10/15 00:11:25;;;;;;;39.00;19.25;;;;;;;10.38;100.00;100625.00;5049706;28;20384;-51
2022/10/15 00:13:54;;;;;;;37.92;19.50;;;;;;;10.35;100.00;100617.31;5049699;28;20470;-51
2022/10/15 00:16:24;;;;;;;32.38;17.77;;;;;;;10.37;100.00;100625.09;5050039;28;20077;-52
2022/10/15 00:18:55;;;;;;;39.03;19.17;;;;;;;10.34;100.00;100610.34;5048054;28;20045;-49
2022/10/15 00:21:25;;;;;;;40.67;20.05;;;;;;;10.28;100.00;100616.00;5049780;28;20060;-53
2022/10/15 00:23:53;;;;;;;42.75;19.17;;;;;;;10.27;100.00;100619.59;5050457;28;20049;-53
2022/10/15 00:26:24;;;;;;;32.15;18.08;;;;;;;10.21;100.00;100620.00;5049600;28;20139;-52
2022/10/15 00:28:54;;;;;;;35.75;18.67;;;;;;;10.15;100.00;100619.47;5049333;28;20045;-55
2022/10/15 00:31:26;;;;;;;42.53;18.02;;;;;;;10.22;100.00;100619.06;5049651;28;20391;-51
2022/10/15 00:33:57;;;;;;;26.17;16.63;;;;;;;10.14;100.00;100617.78;5047826;28;20044;-51
2022/10/15 00:36:29;;;;;;;35.97;17.13;;;;;;;10.06;100.00;100620.09;5050225;28;20079;-51
2022/10/15 00:38:58;;;;;;;28.23;16.67;;;;;;;10.04;100.00;100613.25;5050086;28;20484;-50
2022/10/15 00:41:28;;;;;;;32.03;16.77;;;;;;;9.93;100.00;100612.16;5049940;28;20409;-51
2022/10/15 00:43:57;;;;;;;26.73;16.55;;;;;;;9.91;100.00;100614.06;5049790;28;20049;-50
2022/10/15 00:46:30;;;;;;;27.85;17.60;;;;;;;9.93;100.00;100620.06;5049965;28;20439;-55
2022/10/15 00:49:00;;;;;;;;;;;;;;;9.97;100.00;100618.91;5048480;28;20110;-52
2022/10/15 00:51:35;;;;;;;23.15;14.90;;;;;;;9.97;100.00;100618.06;5049662;28;19932;-51
2022/10/15 00:54:04;;;;;;;30.48;15.43;;;;;;;9.93;100.00;100617.41;5050085;28;20045;-52
2022/10/15 00:56:33;;;;;;;21.20;14.93;;;;;;;9.89;100.00;100621.19;5034104;28;20530;-51
2022/10/15 00:59:01;;;;;;;23.50;14.48;;;;;;;9.91;100.00;100621.09;5053541;28;20037;-50
2022/10/15 01:01:30;;;;;;;20.70;13.75;;;;;;;9.82;100.00;100612.03;5053135;28;20041;-50
2022/10/15 01:03:59;;;;;;;21.27;15.05;;;;;;;9.82;100.00;100615.50;5051029;28;20049;-50
2022/10/15 01:06:27;;;;;;;22.35;14.35;;;;;;;9.79;100.00;100614.88;5051769;28;20152;-50
2022/10/15 01:08:58;;;;;;;18.88;14.48;;;;;;;9.78;100.00;100605.31;5053730;28;20056;-49
2022/10/15 01:11:39;;;;;;;17.60;13.00;;;;;;;9.77;100.00;100607.06;5053552;28;20114;-49
2022/10/15 01:14:21;;;;;;;17.88;13.38;;;;;;;9.71;100.00;100609.28;5052950;28;20052;-51
2022/10/15 01:16:59;;;;;;;18.33;13.23;;;;;;;9.71;100.00;100606.66;5053010;28;20053;-50
2022/10/15 01:19:50;;;;;;;17.77;12.82;;;;;;;9.61;100.00;100601.16;5052586;28;20052;-50
2022/10/15 01:22:30;;;;;;;15.80;12.20;;;;;;;9.57;100.00;100600.53;5053545;28;20079;-50
2022/10/15 01:25:15;;;;;;;14.07;11.27;;;;;;;9.50;100.00;100601.84;5052743;28;20037;-50
2022/10/15 01:27:45;;;;;;;15.82;12.50;;;;;;;9.47;100.00;100592.41;5053216;28;20061;-50
2022/10/15 01:30:20;;;;;;;15.60;12.27;;;;;;;9.47;100.00;100595.03;5053052;28;20044;-54
2022/10/15 01:33:21;;;;;;;14.10;11.50;;;;;;;9.49;100.00;100594.91;5050942;28;20057;-51
2022/10/15 01:35:52;;;;;;;14.57;11.18;;;;;;;9.48;100.00;100586.19;5053745;28;20060;-53
2022/10/15 01:38:31;;;;;;;14.88;11.45;;;;;;;9.51;100.00;100585.16;5053504;28;20479;-49
2022/10/15 01:41:04;;;;;;;14.38;11.82;;;;;;;9.55;100.00;100580.56;5052547;28;20102;-53
2022/10/15 01:43:38;;;;;;;15.90;12.75;;;;;;;9.55;100.00;100591.06;5052368;28;20382;-52
2022/10/15 01:46:13;;;;;;;16.17;11.68;;;;;;;9.58;100.00;100586.44;5051724;28;20126;-53
2022/10/15 01:48:42;;;;;;;17.75;13.00;;;;;;;9.58;100.00;100585.59;5051610;28;20056;-55
2022/10/15 01:51:12;;;;;;;17.95;13.70;;;;;;;9.56;100.00;100588.31;5052915;28;20072;-51
2022/10/15 01:53:41;;;;;;;17.13;12.50;;;;;;;9.59;100.00;100587.28;5052844;28;20110;-50
2022/10/15 01:56:12;;;;;;;16.38;12.52;;;;;;;9.68;100.00;100584.06;5052465;28;20051;-48
2022/10/15 01:58:43;;;;;;;14.45;11.95;;;;;;;9.72;100.00;100582.06;5052630;28;20053;-51
2022/10/15 02:01:12;;;;;;;14.68;11.68;;;;;;;9.63;100.00;100581.72;5052112;28;20049;-50
2022/10/15 02:03:46;;;;;;;15.80;12.35;;;;;;;9.63;100.00;100571.22;5050904;28;20499;-49
2022/10/15 02:06:21;;;;;;;17.00;12.75;;;;;;;9.64;100.00;100575.53;5052616;28;20048;-50
2022/10/15 02:09:01;;;;;;;15.57;11.85;;;;;;;9.67;100.00;100568.38;5052118;28;20045;-51
2022/10/15 02:11:31;;;;;;;15.40;11.75;;;;;;;9.64;100.00;100569.47;5051723;28;20069;-50
2022/10/15 02:14:03;;;;;;;15.30;11.68;;;;;;;9.68;100.00;100573.56;5033817;28;20103;-52
2022/10/15 02:16:40;;;;;;;14.98;12.13;;;;;;;9.67;100.00;100573.63;5034133;28;20064;-49
2022/10/15 02:19:16;;;;;;;14.70;11.20;;;;;;;9.66;100.00;100575.44;5032740;28;20057;-52
2022/10/15 02:21:47;;;;;;;16.63;11.40;;;;;;;9.70;100.00;100576.91;5052139;28;20205;-53
2022/10/15 02:24:20;;;;;;;15.15;12.68;;;;;;;9.73;100.00;100568.00;5053154;28;20104;-52
2022/10/15 02:26:51;;;;;;;14.20;11.25;;;;;;;9.70;100.00;100569.03;5053014;28;20078;-48
2022/10/15 02:29:23;;;;;;;14.30;10.73;;;;;;;9.68;100.00;100563.06;5052575;28;20062;-50
2022/10/15 02:31:55;;;;;;;15.05;10.77;;;;;;;9.67;100.00;100561.38;5052652;28;20060;-48
2022/10/15 02:34:27;;;;;;;14.70;11.55;;;;;;;9.64;100.00;100565.03;5051393;28;20056;-49
2022/10/15 02:36:58;;;;;;;15.13;11.57;;;;;;;9.69;100.00;100550.75;5052309;28;20052;-53
2022/10/15 02:39:27;;;;;;;15.27;10.82;;;;;;;9.65;100.00;100555.34;5051683;28;20511;-51
2022/10/15 02:41:57;;;;;;;15.13;11.00;;;;;;;9.69;100.00;100553.38;5051482;28;20044;-52
2022/10/15 02:44:25;;;;;;;14.38;11.45;;;;;;;9.68;100.00;100543.81;5051655;28;20480;-50
2022/10/15 02:46:55;;;;;;;13.90;10.68;;;;;;;9.65;100.00;100536.97;5033347;28;20056;-52
2022/10/15 02:49:23;;;;;;;13.38;10.20;;;;;;;9.67;100.00;100543.00;5051425;28;20055;-49
2022/10/15 02:51:51;;;;;;;13.48;10.32;;;;;;;9.68;100.00;100543.81;5051663;28;20119;-52
2022/10/15 02:54:22;;;;;;;13.25;9.98;;;;;;;9.71;100.00;100538.38;5051261;28;20055;-51
2022/10/15 02:56:50;;;;;;;13.20;9.68;;;;;;;9.75;100.00;100539.88;5033858;28;20061;-48
2022/10/15 02:59:18;;;;;;;14.15;10.13;;;;;;;9.77;100.00;100544.03;5051228;28;20068;-49
2022/10/15 03:01:46;;;;;;;14.27;9.80;;;;;;;9.75;100.00;100530.19;5050784;28;20435;-51
2022/10/15 03:04:16;;;;;;;15.70;10.38;;;;;;;9.80;100.00;100524.63;5050042;28;20529;-54
2022/10/15 03:06:44;;;;;;;14.73;10.15;;;;;;;9.84;100.00;100520.84;5051270;28;20053;-54
2022/10/15 03:09:12;;;;;;;11.80;9.55;;;;;;;9.79;100.00;100515.06;5051354;28;20049;-49
2022/10/15 03:11:40;;;;;;;11.80;8.77;;;;;;;9.73;100.00;100512.84;5050573;28;20051;-49
2022/10/15 03:14:09;;;;;;;11.32;9.30;;;;;;;9.72;100.00;100513.78;5033235;28;20049;-50
2022/10/15 03:16:37;;;;;;;13.27;10.18;;;;;;;9.72;100.00;100516.41;5050910;28;20053;-47
2022/10/15 03:19:05;;;;;;;12.15;9.60;;;;;;;9.69;100.00;100512.19;5049493;28;20044;-47
2022/10/15 03:21:37;;;;;;;12.18;9.13;;;;;;;9.71;100.00;100522.63;5051048;28;20064;-47
2022/10/15 03:24:05;;;;;;;12.65;8.32;;;;;;;9.71;100.00;100506.88;5050853;28;20055;-47
2022/10/15 03:26:34;;;;;;;12.57;9.18;;;;;;;9.66;100.00;100509.78;5050729;28;20483;-47
2022/10/15 03:29:02;;;;;;;16.88;9.70;;;;;;;9.64;100.00;100512.53;5050513;28;20044;-49
2022/10/15 03:31:30;;;;;;;11.82;9.55;;;;;;;9.60;100.00;100502.34;5050689;28;20060;-50
2022/10/15 03:33:58;;;;;;;12.02;9.23;;;;;;;9.54;100.00;100511.44;5049217;28;20447;-50
2022/10/15 03:36:26;;;;;;;12.40;8.88;;;;;;;9.50;100.00;100502.06;5050781;28;20518;-49
2022/10/15 03:38:55;;;;;;;11.20;8.80;;;;;;;9.51;100.00;100498.53;5050604;28;20059;-47
2022/10/15 03:41:24;;;;;;;12.73;8.80;;;;;;;9.48;100.00;100493.47;5050331;28;20037;-47
2022/10/15 03:43:52;;;;;;;12.82;9.13;;;;;;;9.42;100.00;100497.34;5050560;28;20127;-50
2022/10/15 03:46:20;;;;;;;12.70;9.07;;;;;;;9.45;100.00;100496.31;5050577;28;20049;-48
2022/10/15 03:48:49;;;;;;;11.98;8.80;;;;;;;9.46;100.00;100496.22;5049003;28;20069;-47
2022/10/15 03:51:17;;;;;;;15.43;9.45;;;;;;;9.50;100.00;100486.31;5050898;28;20064;-47
2022/10/15 03:53:53;;;;;;;15.98;9.82;;;;;;;9.50;100.00;100493.38;5050299;28;20053;-47
2022/10/15 03:56:22;;;;;;;19.38;12.82;;;;;;;9.44;100.00;100489.38;5050606;28;20051;-47
2022/10/15 03:58:50;;;;;;;17.15;11.65;;;;;;;9.42;100.00;100480.75;5050210;28;20511;-50
2022/10/15 04:01:19;;;;;;;16.75;11.73;;;;;;;9.45;100.00;100491.06;5050158;28;20076;-49
2022/10/15 04:03:47;;;;;;;17.30;11.13;;;;;;;9.41;100.00;100485.16;5048627;28;20041;-48
2022/10/15 04:06:15;;;;;;;17.08;12.35;;;;;;;9.45;100.00;100493.69;5050452;28;20045;-49
2022/10/15 04:08:43;;;;;;;18.50;12.38;;;;;;;9.46;100.00;100495.34;5050500;28;20388;-48
2022/10/15 04:11:11;;;;;;;16.63;12.35;;;;;;;9.45;100.00;100491.91;5049372;28;20045;-52
2022/10/15 04:13:40;;;;;;;18.30;12.60;;;;;;;9.48;100.00;100489.06;5050212;28;20128;-51
2022/10/15 04:16:09;;;;;;;18.90;13.13;;;;;;;9.51;100.00;100493.25;5049419;28;20064;-53
2022/10/15 04:18:37;;;;;;;22.80;13.88;;;;;;;9.56;100.00;100500.84;5048301;28;20053;-53
2022/10/15 04:21:05;;;;;;;20.60;12.90;;;;;;;9.57;100.00;100500.75;5050252;28;20040;-51
2022/10/15 04:23:33;;;;;;;18.85;13.90;;;;;;;9.57;100.00;100503.38;5032360;28;20574;-52
2022/10/15 04:26:01;;;;;;;20.92;14.10;;;;;;;9.59;100.00;100508.53;5050009;28;20049;-50
2022/10/15 04:28:29;;;;;;;18.20;13.38;;;;;;;9.60;100.00;100504.97;5049976;28;20056;-51
2022/10/15 04:31:00;;;;;;;19.15;13.05;;;;;;;9.59;100.00;100504.09;5051207;28;20389;-53
2022/10/15 04:33:28;;;;;;;20.05;13.93;;;;;;;9.60;100.00;100504.97;5053198;28;20070;-52
2022/10/15 04:36:04;;;;;;;18.65;12.73;;;;;;;9.60;100.00;100515.47;5054469;28;20045;-51
2022/10/15 04:38:32;;;;;;;21.23;13.38;;;;;;;9.57;100.00;100511.25;5054059;28;20067;-49
2022/10/15 04:41:05;;;;;;;20.50;14.43;;;;;;;9.61;100.00;100507.47;5053825;28;20116;-50
2022/10/15 04:43:33;;;;;;;18.77;13.70;;;;;;;9.64;100.00;100509.91;5035912;28;20068;-51
2022/10/15 04:46:06;;;;;;;17.75;12.77;;;;;;;9.63;100.00;100508.19;5053476;28;20453;-51
2022/10/15 04:48:36;;;;;;;19.65;13.23;;;;;;;9.65;100.00;100502.84;5052276;28;20048;-52
2022/10/15 04:51:12;;;;;;;22.75;14.52;;;;;;;9.67;100.00;100502.75;5053965;28;20609;-52
2022/10/15 04:53:40;;;;;;;19.42;13.10;;;;;;;9.72;100.00;100505.91;5053846;28;20056;-53
2022/10/15 04:56:12;;;;;;;22.90;15.25;;;;;;;9.67;100.00;100500.13;5053598;28;20076;-53
2022/10/15 04:58:41;;;;;;;19.95;14.77;;;;;;;9.63;100.00;100500.31;5053532;28;20045;-51
2022/10/15 05:01:12;;;;;;;21.27;14.23;;;;;;;9.71;100.00;100496.38;5053401;28;20044;-52
2022/10/15 05:03:42;;;;;;;19.00;13.48;;;;;;;9.66;100.00;100493.22;5052124;28;20041;-51
2022/10/15 05:06:14;;;;;;;23.20;14.57;;;;;;;9.64;100.00;100495.94;5053670;28;20055;-51
2022/10/15 05:08:42;;;;;;;20.95;14.48;;;;;;;9.62;100.00;100492.56;5053287;28;20044;-50
2022/10/15 05:11:13;;;;;;;17.77;13.15;;;;;;;9.63;100.00;100495.06;5053333;28;20515;-51
2022/10/15 05:13:41;;;;;;;19.63;14.15;;;;;;;9.70;100.00;100489.44;5052923;28;20565;-52
2022/10/15 05:16:13;;;;;;;20.38;14.10;;;;;;;9.69;100.00;100493.00;5053042;28;20084;-48
2022/10/15 05:18:45;;;;;;;18.90;12.98;;;;;;;9.73;100.00;100489.22;5034624;28;20389;-51
2022/10/15 05:21:14;;;;;;;19.63;13.88;;;;;;;9.73;100.00;100487.41;5035199;28;20057;-52
2022/10/15 05:23:42;;;;;;;21.05;14.55;;;;;;;9.71;100.00;100501.63;5035317;28;20045;-53
2022/10/15 05:26:13;;;;;;;19.70;14.57;;;;;;;9.74;100.00;100507.50;5053120;28;20053;-53
2022/10/15 05:28:41;;;;;;;19.77;13.70;;;;;;;9.77;100.00;100502.03;5034453;28;20044;-49
2022/10/15 05:31:13;;;;;;;19.52;14.55;;;;;;;9.80;100.00;100501.84;5052832;28;20551;-49
2022/10/15 05:33:46;;;;;;;20.25;14.13;;;;;;;9.77;100.00;100503.81;5051599;28;20412;-49
2022/10/15 05:36:17;;;;;;;20.75;14.50;;;;;;;9.80;100.00;100511.47;5053016;28;20098;-48
2022/10/15 05:38:45;;;;;;;22.85;15.90;;;;;;;9.79;100.00;100509.81;5052590;28;20048;-50
2022/10/15 05:41:13;;;;;;;24.02;15.38;;;;;;;9.81;100.00;100507.91;5053106;28;20045;-49
2022/10/15 05:43:41;;;;;;;21.65;16.08;;;;;;;9.83;100.00;100500.78;5051416;28;20095;-51
2022/10/15 05:46:11;;;;;;;26.20;17.73;;;;;;;9.84;100.00;100512.97;5052766;28;20127;-50
2022/10/15 05:48:39;;;;;;;26.42;17.00;;;;;;;9.88;100.00;100511.81;5051493;28;20055;-48
2022/10/15 05:51:10;;;;;;;24.10;16.65;;;;;;;9.88;100.00;100518.84;5052688;28;20387;-47
2022/10/15 05:53:39;;;;;;;24.27;16.58;;;;;;;9.90;100.00;100512.56;5052436;28;20045;-52
2022/10/15 05:56:08;;;;;;;24.48;16.77;;;;;;;9.94;100.00;100518.47;5052512;28;20091;-52
2022/10/15 05:58:37;;;;;;;26.15;17.50;;;;;;;9.97;100.00;100515.63;5052592;28;20049;-53
2022/10/15 06:01:08;;;;;;;24.42;17.55;;;;;;;10.02;100.00;100523.16;5052495;28;20578;-52
2022/10/15 06:03:38;;;;;;;24.02;16.92;;;;;;;10.03;100.00;100528.31;5050586;28;20080;-52
2022/10/15 06:06:13;;;;;;;25.02;17.15;;;;;;;10.07;100.00;100529.78;5052275;28;20084;-54
2022/10/15 06:08:41;;;;;;;25.50;18.20;;;;;;;10.10;100.00;100532.22;5052862;28;20057;-50
2022/10/15 06:11:10;;;;;;;31.70;21.95;;;;;;;10.15;100.00;100524.03;5052184;28;20503;-53
2022/10/15 06:13:40;;;;;;;36.78;26.35;;;;;;;10.20;100.00;100523.69;5052490;28;20361;-53
2022/10/15 06:16:09;;;;;;;42.60;28.77;;;;;;;10.46;100.00;100519.31;5051339;28;20100;-52
2022/10/15 06:18:40;;;;;;;52.80;33.83;;;;;;;10.46;100.00;100514.06;5051022;28;20059;-50
2022/10/15 06:21:10;;;;;;;53.47;33.22;;;;;;;10.49;100.00;100508.59;5051880;28;20511;-52
2022/10/15 06:23:38;;;;;;;58.75;34.13;;;;;;;10.54;100.00;100511.72;5052284;28;20052;-50
2022/10/15 06:26:08;;;;;;;64.07;35.85;;;;;;;10.64;100.00;100509.28;5051472;28;20053;-53
2022/10/15 06:28:37;;;;;;;63.25;34.90;;;;;;;10.69;100.00;100507.19;5052277;28;20499;-52
2022/10/15 06:31:07;;;;;;;66.90;35.10;;;;;;;10.75;100.00;100512.00;5051641;28;20715;-52
2022/10/15 06:33:35;;;;;;;69.10;34.50;;;;;;;10.80;100.00;100511.69;5050380;28;20094;-58
2022/10/15 06:36:07;;;;;;;68.07;35.75;;;;;;;10.94;100.00;100515.94;5051670;28;20158;-52
2022/10/15 06:38:36;;;;;;;68.75;34.00;;;;;;;11.02;100.00;100513.59;5051902;28;20215;-53
2022/10/15 06:41:04;;;;;;;62.45;33.42;;;;;;;11.02;100.00;100518.03;5051456;28;20057;-53
2022/10/15 06:43:32;;;;;;;72.65;34.05;;;;;;;11.13;100.00;100515.47;5051548;28;20044;-51
2022/10/15 06:46:03;;;;;;;64.07;32.55;;;;;;;11.22;100.00;100521.84;5051629;28;20049;-49
2022/10/15 06:48:32;;;;;;;61.53;32.22;;;;;;;11.23;100.00;100524.34;5050385;28;20129;-47
2022/10/15 06:51:01;;;;;;;60.00;32.13;;;;;;;11.26;100.00;100524.16;5051248;28;20460;-51
2022/10/15 06:53:31;;;;;;;60.05;31.25;;;;;;;11.32;100.00;100522.84;5051320;28;20053;-50
2022/10/15 06:56:00;;;;;;;64.63;32.42;;;;;;;11.35;100.00;100527.88;5051226;28;20524;-53
2022/10/15 06:58:29;;;;;;;58.75;30.80;;;;;;;11.39;100.00;100516.19;5051129;28;20056;-54
2022/10/15 07:01:00;;;;;;;60.03;32.25;;;;;;;11.43;100.00;100519.44;5050933;28;20068;-53
2022/10/15 07:03:28;;;;;;;59.17;32.63;;;;;;;11.47;100.00;100516.44;5049291;28;20040;-53
2022/10/15 07:06:01;;;;;;;59.05;33.33;;;;;;;11.51;100.00;100517.06;5051292;28;20049;-54
2022/10/15 07:08:29;;;;;;;59.40;32.28;;;;;;;11.53;100.00;100522.22;5033489;28;20087;-51
2022/10/15 07:10:58;;;;;;;60.65;34.45;;;;;;;11.58;100.00;100522.72;5050597;28;20041;-53
2022/10/15 07:13:26;;;;;;;58.50;31.63;;;;;;;11.65;100.00;100516.88;5051350;28;20407;-47
2022/10/15 07:15:57;;;;;;;54.58;30.85;;;;;;;11.71;100.00;100520.00;5029493;28;20056;-47
2022/10/15 07:18:25;;;;;;;51.65;30.35;;;;;;;11.70;100.00;100518.31;5029665;28;20046;-50
2022/10/15 07:20:53;;;;;;;55.85;30.60;;;;;;;11.73;100.00;100521.56;5030074;28;20052;-48
2022/10/15 07:23:22;;;;;;;51.30;30.13;;;;;;;11.75;100.00;100521.44;5031543;28;20463;-52
2022/10/15 07:25:55;;;;;;;53.55;29.67;;;;;;;11.79;100.00;100525.53;5031360;28;20475;-50
2022/10/15 07:28:24;;;;;;;56.88;30.70;;;;;;;11.81;100.00;100531.53;5029431;28;20045;-48
2022/10/15 07:30:53;;;;;;;53.15;31.08;;;;;;;11.86;100.00;100526.75;5030806;28;20049;-48
2022/10/15 07:33:21;;;;;;;55.33;30.02;;;;;;;11.90;100.00;100530.84;5027954;28;20136;-49
2022/10/15 07:35:49;;;;;;;57.58;29.38;;;;;;;11.95;100.00;100526.06;5031418;28;20064;-50
2022/10/15 07:38:17;;;;;;;54.83;29.60;;;;;;;11.99;100.00;100524.06;5030870;28;20056;-48
2022/10/15 07:40:45;;;;;;;57.65;29.67;;;;;;;12.03;100.00;100522.88;5031024;28;20049;-50
2022/10/15 07:43:14;;;;;;;54.53;30.15;;;;;;;12.08;100.00;100520.72;5030891;28;20045;-52
2022/10/15 07:45:48;;;;;;;52.10;28.10;;;;;;;12.14;100.00;100514.13;5031345;28;20045;-53
2022/10/15 07:48:16;;;;;;;49.47;28.50;;;;;;;12.22;100.00;100511.75;5029255;28;20107;-49
2022/10/15 07:50:44;;;;;;;49.78;27.52;;;;;;;12.24;100.00;100515.09;5031136;28;20053;-48
2022/10/15 07:53:13;;;;;;;49.38;27.55;;;;;;;12.26;100.00;100513.19;5030165;28;20049;-50
2022/10/15 07:55:43;;;;;;;48.22;26.98;;;;;;;12.28;100.00;100511.25;5030791;28;20072;-47
2022/10/15 07:58:11;;;;;;;44.90;26.55;;;;;;;12.31;100.00;100510.19;5030068;28;20045;-48
2022/10/15 08:00:39;;;;;;;46.83;25.48;;;;;;;12.33;100.00;100506.47;5030842;28;20041;-49
2022/10/15 08:03:09;;;;;;;41.63;24.42;;;;;;;12.40;100.00;100514.75;5027875;28;20037;-51
2022/10/15 08:05:37;;;;;;;38.95;23.50;;;;;;;12.44;100.00;100518.00;5029844;28;20069;-48
2022/10/15 08:08:05;;;;;;;39.28;23.10;;;;;;;12.48;100.00;100511.53;5029462;28;20049;-48
2022/10/15 08:10:33;;;;;;;42.63;23.30;;;;;;;12.55;100.00;100511.88;5030664;28;20081;-48
2022/10/15 08:13:01;;;;;;;40.47;23.30;;;;;;;12.59;100.00;100519.41;5030047;28;20511;-48
2022/10/15 08:15:30;;;;;;;39.90;23.20;;;;;;;12.68;100.00;100516.06;5035013;28;20538;-49
2022/10/15 08:18:00;;;;;;;37.17;21.98;;;;;;;12.76;100.00;100512.81;5048224;28;20049;-49
2022/10/15 08:20:30;;;;;;;36.03;21.15;;;;;;;12.83;100.00;100518.47;5050498;28;20045;-50
2022/10/15 08:22:58;;;;;;;35.97;23.20;;;;;;;12.91;100.00;100517.81;5050171;28;20427;-50
2022/10/15 08:25:26;;;;;;;34.55;21.73;;;;;;;13.00;100.00;100510.00;5050197;28;20043;-55
2022/10/15 08:27:55;;;;;;;35.17;21.35;;;;;;;13.11;100.00;100508.31;5031284;28;20057;-54
2022/10/15 08:30:23;;;;;;;33.95;20.92;;;;;;;13.24;100.00;100508.13;5050029;28;20049;-55
2022/10/15 08:32:51;;;;;;;36.45;21.17;;;;;;;13.42;100.00;100501.38;5047357;28;20131;-55
2022/10/15 08:35:19;;;;;;;36.47;22.08;;;;;;;13.62;100.00;100490.94;5049949;28;20056;-55
2022/10/15 08:37:48;;;;;;;35.15;22.23;;;;;;;13.87;100.00;100489.72;5050450;28;20095;-54
2022/10/15 08:40:17;;;;;;;35.67;21.65;;;;;;;13.88;100.00;100490.56;5049453;28;20507;-55
2022/10/15 08:42:46;;;;;;;32.08;20.63;;;;;;;13.90;100.00;100486.81;5049325;28;20091;-55
2022/10/15 08:45:18;;;;;;;30.70;20.20;;;;;;;14.00;100.00;100478.94;5049870;28;20438;-54
2022/10/15 08:47:49;;;;;;;30.52;19.52;;;;;;;14.08;100.00;100471.19;5048431;28;20045;-56
2022/10/15 08:50:26;;;;;;;27.58;18.67;;;;;;;14.06;100.00;100467.84;5049989;28;20504;-56
2022/10/15 08:52:58;;;;;;;28.10;18.73;;;;;;;14.02;100.00;100469.91;5049066;28;20407;-56
2022/10/15 08:55:34;;;;;;;25.95;18.00;;;;;;;14.05;100.00;100466.16;5049701;28;20110;-56
2022/10/15 08:58:12;;;;;;;27.90;18.50;;;;;;;14.15;100.00;100468.84;5049416;28;20464;-55
2022/10/15 09:00:44;;;;;;;27.83;19.20;;;;;;;14.22;100.00;100464.72;5049979;28;20105;-57
2022/10/15 09:03:25;;;;;;;28.92;19.70;;;;;;;14.35;100.00;100462.66;5047503;28;20124;-56
2022/10/15 09:06:01;;;;;;;28.13;19.17;;;;;;;14.28;100.00;100463.34;5049115;28;20045;-56
2022/10/15 09:08:38;;;;;;;29.33;20.63;;;;;;;14.35;100.00;100465.31;5050293;28;20060;-56
2022/10/15 09:11:14;;;;;;;24.75;17.67;;;;;;;14.34;100.00;100465.44;5049528;28;20408;-56
2022/10/15 09:13:44;;;;;;;28.50;19.60;;;;;;;14.40;100.00;100464.06;5049560;28;20422;-57
2022/10/15 09:16:16;;;;;;;28.10;19.30;;;;;;;14.49;100.00;100461.50;5048783;28;20064;-56
2022/10/15 09:18:47;;;;;;;28.03;18.10;;;;;;;14.52;100.00;100460.38;5052308;28;20106;-56
2022/10/15 09:21:15;;;;;;;26.08;18.25;;;;;;;14.62;100.00;100460.41;5053295;28;20060;-57
2022/10/15 09:23:45;;;;;;;24.20;16.52;;;;;;;14.71;100.00;100454.31;5053721;28;20076;-56
2022/10/15 09:26:25;;;;;;;23.80;16.85;;;;;;;14.70;100.00;100456.13;5052712;28;20107;-56
2022/10/15 09:29:03;;;;;;;22.38;15.75;;;;;;;14.69;100.00;100453.63;5052623;28;20057;-57
2022/10/15 09:31:39;;;;;;;24.70;16.05;;;;;;;14.76;100.00;100440.69;5053107;28;20052;-56
2022/10/15 09:34:15;;;;;;;21.90;15.23;;;;;;;14.85;100.00;100430.09;5051272;28;20053;-56
2022/10/15 09:36:50;;;;;;;20.02;14.40;;;;;;;15.00;100.00;100432.34;5053092;28;20049;-56
2022/10/15 09:39:38;;;;;;;21.08;14.65;;;;;;;15.18;100.00;100427.19;5053347;28;20110;-57
2022/10/15 09:42:20;;;;;;;22.05;13.80;;;;;;;15.19;100.00;100429.69;5052747;28;20041;-57
2022/10/15 09:44:50;;;;;;;19.17;13.65;;;;;;;15.19;100.00;100428.88;5053055;28;20103;-56
2022/10/15 09:47:24;;;;;;;20.38;13.65;;;;;;;15.18;100.00;100422.72;5050839;28;20822;-57
2022/10/15 09:49:52;;;;;;;18.88;13.27;;;;;;;15.32;100.00;100412.66;5052831;28;20041;-56
2022/10/15 09:52:30;;;;;;;21.33;14.15;;;;;;;15.42;100.00;100416.16;5053024;28;20403;-57
2022/10/15 09:55:09;;;;;;;19.17;12.77;;;;;;;15.53;100.00;100417.81;5052362;28;20053;-57
2022/10/15 09:57:39;;;;;;;18.67;12.77;;;;;;;15.57;100.00;100411.25;5052215;28;20622;-57
2022/10/15 10:00:10;;;;;;;17.90;12.73;;;;;;;15.61;100.00;100404.69;5051683;28;20040;-57
2022/10/15 10:02:38;;;;;;;18.52;12.25;;;;;;;15.76;100.00;100401.56;5050246;28;20048;-56
2022/10/15 10:05:30;;;;;;;17.73;11.95;;;;;;;15.83;100.00;100405.34;5052056;28;20137;-52
2022/10/15 10:08:09;;;;;;;18.58;11.73;;;;;;;15.77;100.00;100416.50;5052016;28;20523;-51
2022/10/15 10:10:39;;;;;;;16.35;10.95;;;;;;;15.80;100.00;100413.56;5052312;28;20049;-49
2022/10/15 10:13:24;;;;;;;17.05;11.77;;;;;;;15.74;100.00;100408.84;5051963;28;20364;-47
2022/10/15 10:15:54;;;;;;;16.45;10.90;;;;;;;15.70;100.00;100401.16;5051666;28;20053;-48
2022/10/15 10:18:26;;;;;;;15.15;10.80;;;;;;;15.68;100.00;100397.00;5050516;28;20408;-47
2022/10/15 10:20:58;;;;;;;15.45;10.85;;;;;;;15.62;100.00;100386.97;5051569;28;20515;-48
2022/10/15 10:23:33;;;;;;;14.73;10.27;;;;;;;15.58;100.00;100389.03;5052666;28;20154;-47
2022/10/15 10:26:05;;;;;;;13.05;8.93;;;;;;;15.53;100.00;100393.97;5052208;28;20368;-47
2022/10/15 10:28:37;;;;;;;12.70;8.70;;;;;;;15.47;100.00;100397.16;5051046;28;20059;-48
2022/10/15 10:31:11;;;;;;;14.80;8.95;;;;;;;15.49;100.00;100392.56;5052021;28;20057;-48
2022/10/15 10:33:44;;;;;;;13.70;9.27;;;;;;;15.50;100.00;100395.09;5050341;28;20119;-49
2022/10/15 10:36:24;;;;;;;15.55;9.75;;;;;;;15.40;100.00;100394.25;5051869;28;20080;-51
2022/10/15 10:39:00;;;;;;;13.40;9.60;;;;;;;15.38;100.00;100401.53;5051979;28;20041;-52
2022/10/15 10:41:51;;;;;;;16.95;9.52;;;;;;;15.37;100.00;100390.06;5031209;28;20084;-48
2022/10/15 10:44:22;;;;;;;16.20;10.07;;;;;;;15.42;100.00;100392.31;5032116;28;20103;-52
2022/10/15 10:47:12;;;;;;;16.67;9.43;;;;;;;15.24;100.00;100383.41;5031710;28;20447;-51
2022/10/15 10:49:42;;;;;;;15.30;10.30;;;;;;;15.16;100.00;100381.44;5033216;28;20053;-51
2022/10/15 10:52:22;;;;;;;14.90;10.30;;;;;;;15.13;100.00;100381.75;5032068;28;20057;-49
2022/10/15 10:54:58;;;;;;;16.13;10.43;;;;;;;15.13;100.00;100376.44;5032182;28;20042;-50
2022/10/15 10:57:39;;;;;;;18.00;11.13;;;;;;;15.16;100.00;100376.16;5031791;28;20054;-52
2022/10/15 11:00:12;;;;;;;17.73;11.20;;;;;;;15.09;100.00;100369.75;5032508;28;20072;-49
2022/10/15 11:02:42;;;;;;;18.67;10.43;;;;;;;15.23;100.00;100371.97;5011774;28;20045;-55
2022/10/15 11:05:11;;;;;;;15.43;10.45;;;;;;;15.20;100.00;100373.09;5031357;28;20558;-54
2022/10/15 11:07:51;;;;;;;15.32;9.70;;;;;;;15.17;100.00;100370.75;5031522;28;20095;-57
2022/10/15 11:10:25;;;;;;;15.68;9.52;;;;;;;15.13;100.00;100373.78;5031409;28;20064;-55
2022/10/15 11:13:24;;;;;;;15.30;9.80;;;;;;;15.13;100.00;100371.97;5050034;28;20041;-54
2022/10/15 11:16:03;;;;;;;13.75;9.05;;;;;;;15.14;100.00;100360.41;5033065;28;20499;-56
2022/10/15 11:18:49;;;;;;;14.25;9.20;;;;;;;15.08;100.00;100361.00;5049491;28;20136;-53
2022/10/15 11:21:27;;;;;;;15.52;9.02;;;;;;;15.04;100.00;100363.06;5051075;28;20048;-52
2022/10/15 11:24:09;;;;;;;13.55;8.90;;;;;;;14.98;100.00;100352.22;5051301;28;20045;-53
2022/10/15 11:26:51;;;;;;;14.30;8.02;;;;;;;15.03;100.00;100350.81;5050932;28;20095;-53